sensor_id;sensor_type;location;lat;lon;timestamp;P1;durP1;ratioP1;P2;durP2;ratioP2
52268;SDS011;38224;50.950;4.100;2022-09-17T00:00:31;8.20;;;1.90;;
52268;SDS011;38224;50.950;4.100;2022-09-17T00:02:56;11.40;;;2.00;;
52268;SDS011;38224;50.950;4.100;2022-09-17T00:05:21;10.30;;;1.77;;
52268;SDS011;38224;50.950;4.100;2022-09-17T00:07:48;15.93;;;1.98;;
52268;SDS011;38224;50.950;4.100;2022-09-17T00:10:13;15.18;;;2.38;;
52268;SDS011;38224;50.950;4.100;2022-09-17T00:12:38;15.40;;;2.55;;
52268;SDS011;38224;50.950;4.100;2022-09-17T00:15:04;13.83;;;2.37;;
52268;SDS011;38224;50.950;4.100;2022-09-17T00:17:29;9.95;;;1.67;;
52268;SDS011;38224;50.950;4.100;2022-09-17T00:19:55;15.73;;;2.07;;
52268;SDS011;38224;50.950;4.100;2022-09-17T00:22:20;15.45;;;2.25;;
52268;SDS011;38224;50.950;4.100;2022-09-17T00:24:45;10.13;;;2.08;;
52268;SDS011;38224;50.950;4.100;2022-09-17T00:27:10;14.10;;;2.43;;
52268;SDS011;38224;50.950;4.100;2022-09-17T00:29:36;14.83;;;2.07;;
52268;SDS011;38224;50.950;4.100;2022-09-17T00:32:01;9.82;;;2.05;;
52268;SDS011;38224;50.950;4.100;2022-09-17T00:34:26;12.13;;;2.30;;
52268;SDS011;38224;50.950;4.100;2022-09-17T00:36:51;7.67;;;1.67;;
52268;SDS011;38224;50.950;4.100;2022-09-17T00:39:17;12.47;;;2.40;;
52268;SDS011;38224;50.950;4.100;2022-09-17T00:41:42;14.68;;;2.67;;
52268;SDS011;38224;50.950;4.100;2022-09-17T00:46:52;12.23;;;2.13;;
52268;SDS011;38224;50.950;4.100;2022-09-17T00:49:18;10.38;;;1.95;;
52268;SDS011;38224;50.950;4.100;2022-09-17T00:51:47;13.57;;;2.33;;
52268;SDS011;38224;50.950;4.100;2022-09-17T00:54:13;15.55;;;2.92;;
52268;SDS011;38224;50.950;4.100;2022-09-17T00:56:39;20.88;;;2.47;;
52268;SDS011;38224;50.950;4.100;2022-09-17T00:59:05;13.25;;;2.33;;
52268;SDS011;38224;50.950;4.100;2022-09-17T01:01:31;20.80;;;2.67;;
52268;SDS011;38224;50.950;4.100;2022-09-17T01:03:56;14.40;;;3.17;;
52268;SDS011;38224;50.950;4.100;2022-09-17T01:06:32;18.83;;;2.72;;
52268;SDS011;38224;50.950;4.100;2022-09-17T01:16:39;15.38;;;2.83;;
52268;SDS011;38224;50.950;4.100;2022-09-17T01:22:52;15.63;;;3.08;;
52268;SDS011;38224;50.950;4.100;2022-09-17T01:35:10;10.52;;;2.75;;
52268;SDS011;38224;50.950;4.100;2022-09-17T01:37:42;18.08;;;2.72;;
52268;SDS011;38224;50.950;4.100;2022-09-17T01:40:54;15.52;;;3.20;;
52268;SDS011;38224;50.950;4.100;2022-09-17T01:42:58;20.10;;;2.92;;
52268;SDS011;38224;50.950;4.100;2022-09-17T01:45:29;19.38;;;4.05;;
52268;SDS011;38224;50.950;4.100;2022-09-17T01:47:57;18.20;;;3.65;;
52268;SDS011;38224;50.950;4.100;2022-09-17T01:50:28;20.30;;;3.47;;
52268;SDS011;38224;50.950;4.100;2022-09-17T01:52:54;16.90;;;3.28;;
52268;SDS011;38224;50.950;4.100;2022-09-17T01:55:21;19.05;;;3.55;;
52268;SDS011;38224;50.950;4.100;2022-09-17T02:00:13;17.53;;;3.00;;
52268;SDS011;38224;50.950;4.100;2022-09-17T02:02:49;13.57;;;3.15;;
52268;SDS011;38224;50.950;4.100;2022-09-17T02:05:17;14.68;;;2.83;;
52268;SDS011;38224;50.950;4.100;2022-09-17T02:07:46;16.77;;;3.30;;
52268;SDS011;38224;50.950;4.100;2022-09-17T02:10:15;21.27;;;3.50;;
52268;SDS011;38224;50.950;4.100;2022-09-17T02:12:43;16.02;;;3.53;;
52268;SDS011;38224;50.950;4.100;2022-09-17T02:15:11;19.95;;;3.60;;
52268;SDS011;38224;50.950;4.100;2022-09-17T02:17:41;14.48;;;3.58;;
52268;SDS011;38224;50.950;4.100;2022-09-17T02:20:08;10.23;;;2.63;;
52268;SDS011;38224;50.950;4.100;2022-09-17T02:22:47;18.85;;;3.38;;
52268;SDS011;38224;50.950;4.100;2022-09-17T02:25:17;11.77;;;3.05;;
52268;SDS011;38224;50.950;4.100;2022-09-17T02:27:57;14.07;;;2.90;;
52268;SDS011;38224;50.950;4.100;2022-09-17T02:30:25;17.52;;;2.65;;
52268;SDS011;38224;50.950;4.100;2022-09-17T02:32:50;15.95;;;3.28;;
52268;SDS011;38224;50.950;4.100;2022-09-17T02:35:15;21.43;;;3.93;;
52268;SDS011;38224;50.950;4.100;2022-09-17T02:37:41;12.20;;;2.90;;
52268;SDS011;38224;50.950;4.100;2022-09-17T02:40:07;19.63;;;2.75;;
52268;SDS011;38224;50.950;4.100;2022-09-17T02:50:16;22.33;;;3.73;;
52268;SDS011;38224;50.950;4.100;2022-09-17T02:55:13;23.13;;;4.10;;
52268;SDS011;38224;50.950;4.100;2022-09-17T02:57:44;20.52;;;3.60;;
52268;SDS011;38224;50.950;4.100;2022-09-17T03:02:37;22.90;;;3.67;;
52268;SDS011;38224;50.950;4.100;2022-09-17T03:05:05;16.65;;;3.75;;
52268;SDS011;38224;50.950;4.100;2022-09-17T03:07:31;19.92;;;3.47;;
52268;SDS011;38224;50.950;4.100;2022-09-17T03:09:57;25.87;;;3.90;;
52268;SDS011;38224;50.950;4.100;2022-09-17T03:12:22;21.42;;;3.15;;
52268;SDS011;38224;50.950;4.100;2022-09-17T03:14:48;21.05;;;2.95;;
52268;SDS011;38224;50.950;4.100;2022-09-17T03:17:14;18.15;;;3.25;;
52268;SDS011;38224;50.950;4.100;2022-09-17T03:19:39;22.38;;;3.53;;
52268;SDS011;38224;50.950;4.100;2022-09-17T03:22:04;17.83;;;3.95;;
52268;SDS011;38224;50.950;4.100;2022-09-17T03:24:30;28.13;;;4.30;;
52268;SDS011;38224;50.950;4.100;2022-09-17T03:26:55;17.83;;;3.13;;
52268;SDS011;38224;50.950;4.100;2022-09-17T03:29:21;18.75;;;3.70;;
52268;SDS011;38224;50.950;4.100;2022-09-17T03:31:46;26.90;;;4.37;;
52268;SDS011;38224;50.950;4.100;2022-09-17T03:34:11;20.23;;;4.53;;
52268;SDS011;38224;50.950;4.100;2022-09-17T03:36:36;21.98;;;3.60;;
52268;SDS011;38224;50.950;4.100;2022-09-17T03:39:02;22.77;;;4.18;;
52268;SDS011;38224;50.950;4.100;2022-09-17T03:41:27;27.80;;;4.45;;
52268;SDS011;38224;50.950;4.100;2022-09-17T03:43:52;24.92;;;4.10;;
52268;SDS011;38224;50.950;4.100;2022-09-17T03:46:18;29.27;;;4.45;;
52268;SDS011;38224;50.950;4.100;2022-09-17T03:48:43;24.70;;;3.65;;
52268;SDS011;38224;50.950;4.100;2022-09-17T03:51:09;27.00;;;3.92;;
52268;SDS011;38224;50.950;4.100;2022-09-17T03:53:34;19.97;;;3.20;;
52268;SDS011;38224;50.950;4.100;2022-09-17T03:56:00;31.43;;;4.63;;
52268;SDS011;38224;50.950;4.100;2022-09-17T03:58:26;32.85;;;4.45;;
52268;SDS011;38224;50.950;4.100;2022-09-17T04:00:51;25.10;;;3.75;;
52268;SDS011;38224;50.950;4.100;2022-09-17T04:03:17;24.42;;;3.70;;
52268;SDS011;38224;50.950;4.100;2022-09-17T04:05:42;27.50;;;4.10;;
52268;SDS011;38224;50.950;4.100;2022-09-17T04:08:08;25.80;;;4.67;;
52268;SDS011;38224;50.950;4.100;2022-09-17T04:10:33;34.57;;;3.80;;
52268;SDS011;38224;50.950;4.100;2022-09-17T04:12:58;25.90;;;3.92;;
52268;SDS011;38224;50.950;4.100;2022-09-17T04:15:23;31.83;;;3.73;;
52268;SDS011;38224;50.950;4.100;2022-09-17T04:17:49;29.60;;;4.47;;
52268;SDS011;38224;50.950;4.100;2022-09-17T04:20:14;34.93;;;4.43;;
52268;SDS011;38224;50.950;4.100;2022-09-17T04:22:39;25.52;;;3.60;;
52268;SDS011;38224;50.950;4.100;2022-09-17T04:25:05;27.80;;;3.95;;
52268;SDS011;38224;50.950;4.100;2022-09-17T04:27:30;25.27;;;3.35;;
52268;SDS011;38224;50.950;4.100;2022-09-17T04:29:56;20.93;;;3.27;;
52268;SDS011;38224;50.950;4.100;2022-09-17T04:32:21;33.20;;;4.50;;
52268;SDS011;38224;50.950;4.100;2022-09-17T04:34:46;31.43;;;3.53;;
52268;SDS011;38224;50.950;4.100;2022-09-17T04:37:11;20.80;;;3.27;;
52268;SDS011;38224;50.950;4.100;2022-09-17T04:39:37;25.77;;;4.10;;
52268;SDS011;38224;50.950;4.100;2022-09-17T04:42:02;19.17;;;3.17;;
52268;SDS011;38224;50.950;4.100;2022-09-17T04:44:27;18.67;;;3.58;;
52268;SDS011;38224;50.950;4.100;2022-09-17T04:46:52;15.43;;;3.47;;
52268;SDS011;38224;50.950;4.100;2022-09-17T04:49:18;22.95;;;4.15;;
52268;SDS011;38224;50.950;4.100;2022-09-17T04:51:43;20.65;;;3.17;;
52268;SDS011;38224;50.950;4.100;2022-09-17T04:54:08;15.27;;;3.22;;
52268;SDS011;38224;50.950;4.100;2022-09-17T04:56:34;18.60;;;3.27;;
52268;SDS011;38224;50.950;4.100;2022-09-17T04:58:59;26.27;;;3.90;;
52268;SDS011;38224;50.950;4.100;2022-09-17T05:01:24;20.97;;;3.50;;
52268;SDS011;38224;50.950;4.100;2022-09-17T05:03:49;23.93;;;3.83;;
52268;SDS011;38224;50.950;4.100;2022-09-17T05:06:15;16.88;;;2.60;;
52268;SDS011;38224;50.950;4.100;2022-09-17T05:08:40;26.67;;;3.83;;
52268;SDS011;38224;50.950;4.100;2022-09-17T05:11:05;24.23;;;3.40;;
52268;SDS011;38224;50.950;4.100;2022-09-17T05:13:30;23.03;;;3.47;;
52268;SDS011;38224;50.950;4.100;2022-09-17T05:15:56;20.85;;;3.72;;
52268;SDS011;38224;50.950;4.100;2022-09-17T05:18:21;20.73;;;4.67;;
52268;SDS011;38224;50.950;4.100;2022-09-17T05:20:47;19.15;;;4.35;;
52268;SDS011;38224;50.950;4.100;2022-09-17T05:23:12;18.98;;;3.15;;
52268;SDS011;38224;50.950;4.100;2022-09-17T05:25:37;25.33;;;3.80;;
52268;SDS011;38224;50.950;4.100;2022-09-17T05:28:02;17.27;;;3.10;;
52268;SDS011;38224;50.950;4.100;2022-09-17T05:30:28;22.43;;;3.67;;
52268;SDS011;38224;50.950;4.100;2022-09-17T05:32:58;16.02;;;3.10;;
52268;SDS011;38224;50.950;4.100;2022-09-17T05:35:23;21.08;;;2.72;;
52268;SDS011;38224;50.950;4.100;2022-09-17T05:37:48;17.30;;;2.45;;
52268;SDS011;38224;50.950;4.100;2022-09-17T05:40:13;25.00;;;3.00;;
52268;SDS011;38224;50.950;4.100;2022-09-17T05:42:39;21.70;;;3.15;;
52268;SDS011;38224;50.950;4.100;2022-09-17T05:45:04;20.50;;;2.00;;
52268;SDS011;38224;50.950;4.100;2022-09-17T05:47:30;23.30;;;2.58;;
52268;SDS011;38224;50.950;4.100;2022-09-17T05:49:55;15.07;;;2.40;;
52268;SDS011;38224;50.950;4.100;2022-09-17T05:52:20;16.05;;;2.22;;
52268;SDS011;38224;50.950;4.100;2022-09-17T05:54:46;14.77;;;2.60;;
52268;SDS011;38224;50.950;4.100;2022-09-17T05:57:12;15.40;;;2.75;;
52268;SDS011;38224;50.950;4.100;2022-09-17T05:59:37;20.52;;;3.13;;
52268;SDS011;38224;50.950;4.100;2022-09-17T06:02:02;17.97;;;3.53;;
52268;SDS011;38224;50.950;4.100;2022-09-17T06:04:29;18.88;;;2.97;;
52268;SDS011;38224;50.950;4.100;2022-09-17T06:06:54;17.20;;;2.30;;
52268;SDS011;38224;50.950;4.100;2022-09-17T06:09:19;23.40;;;3.55;;
52268;SDS011;38224;50.950;4.100;2022-09-17T06:11:45;20.38;;;3.47;;
52268;SDS011;38224;50.950;4.100;2022-09-17T06:14:10;24.00;;;3.47;;
52268;SDS011;38224;50.950;4.100;2022-09-17T06:16:35;15.37;;;2.30;;
52268;SDS011;38224;50.950;4.100;2022-09-17T06:19:00;26.57;;;2.93;;
52268;SDS011;38224;50.950;4.100;2022-09-17T06:21:26;18.02;;;3.47;;
52268;SDS011;38224;50.950;4.100;2022-09-17T06:23:51;17.33;;;3.25;;
52268;SDS011;38224;50.950;4.100;2022-09-17T06:26:17;18.60;;;3.10;;
52268;SDS011;38224;50.950;4.100;2022-09-17T06:28:42;17.73;;;2.58;;
52268;SDS011;38224;50.950;4.100;2022-09-17T06:31:09;17.88;;;3.05;;
52268;SDS011;38224;50.950;4.100;2022-09-17T06:33:34;12.55;;;2.40;;
52268;SDS011;38224;50.950;4.100;2022-09-17T06:36:04;23.42;;;3.00;;
52268;SDS011;38224;50.950;4.100;2022-09-17T06:38:32;20.73;;;2.97;;
52268;SDS011;38224;50.950;4.100;2022-09-17T06:40:57;15.43;;;2.83;;
52268;SDS011;38224;50.950;4.100;2022-09-17T06:43:22;14.43;;;2.47;;
52268;SDS011;38224;50.950;4.100;2022-09-17T06:45:54;15.57;;;3.67;;
52268;SDS011;38224;50.950;4.100;2022-09-17T06:48:20;14.15;;;2.55;;
52268;SDS011;38224;50.950;4.100;2022-09-17T06:50:46;17.80;;;2.90;;
52268;SDS011;38224;50.950;4.100;2022-09-17T06:53:11;12.35;;;3.05;;
52268;SDS011;38224;50.950;4.100;2022-09-17T06:55:36;26.63;;;3.30;;
52268;SDS011;38224;50.950;4.100;2022-09-17T06:58:02;17.03;;;3.03;;
52268;SDS011;38224;50.950;4.100;2022-09-17T07:00:27;15.47;;;2.73;;
52268;SDS011;38224;50.950;4.100;2022-09-17T07:02:59;17.17;;;2.60;;
52268;SDS011;38224;50.950;4.100;2022-09-17T07:05:24;16.87;;;2.90;;
52268;SDS011;38224;50.950;4.100;2022-09-17T07:07:50;12.55;;;2.30;;
52268;SDS011;38224;50.950;4.100;2022-09-17T07:10:16;17.08;;;3.03;;
52268;SDS011;38224;50.950;4.100;2022-09-17T07:12:41;15.20;;;2.13;;
52268;SDS011;38224;50.950;4.100;2022-09-17T07:15:07;14.65;;;2.83;;
52268;SDS011;38224;50.950;4.100;2022-09-17T07:17:34;15.82;;;3.28;;
52268;SDS011;38224;50.950;4.100;2022-09-17T07:20:00;15.15;;;2.65;;
52268;SDS011;38224;50.950;4.100;2022-09-17T07:22:25;22.85;;;3.40;;
52268;SDS011;38224;50.950;4.100;2022-09-17T07:24:50;12.60;;;2.77;;
52268;SDS011;38224;50.950;4.100;2022-09-17T07:27:15;13.83;;;2.10;;
52268;SDS011;38224;50.950;4.100;2022-09-17T07:29:41;11.27;;;2.27;;
52268;SDS011;38224;50.950;4.100;2022-09-17T07:32:06;9.57;;;2.17;;
52268;SDS011;38224;50.950;4.100;2022-09-17T07:34:31;10.73;;;1.80;;
52268;SDS011;38224;50.950;4.100;2022-09-17T07:36:57;8.67;;;1.80;;
52268;SDS011;38224;50.950;4.100;2022-09-17T07:39:22;12.60;;;2.25;;
52268;SDS011;38224;50.950;4.100;2022-09-17T07:41:47;12.30;;;2.42;;
52268;SDS011;38224;50.950;4.100;2022-09-17T07:44:13;8.37;;;2.20;;
52268;SDS011;38224;50.950;4.100;2022-09-17T07:46:38;15.60;;;2.97;;
52268;SDS011;38224;50.950;4.100;2022-09-17T07:49:03;10.07;;;2.03;;
52268;SDS011;38224;50.950;4.100;2022-09-17T07:51:28;12.90;;;1.80;;
52268;SDS011;38224;50.950;4.100;2022-09-17T07:53:54;12.25;;;1.88;;
52268;SDS011;38224;50.950;4.100;2022-09-17T07:56:21;11.40;;;2.47;;
52268;SDS011;38224;50.950;4.100;2022-09-17T07:58:46;11.18;;;2.45;;
52268;SDS011;38224;50.950;4.100;2022-09-17T08:01:12;10.07;;;2.03;;
52268;SDS011;38224;50.950;4.100;2022-09-17T08:03:39;14.50;;;2.55;;
52268;SDS011;38224;50.950;4.100;2022-09-17T08:06:05;9.93;;;1.90;;
52268;SDS011;38224;50.950;4.100;2022-09-17T08:08:32;10.68;;;1.90;;
52268;SDS011;38224;50.950;4.100;2022-09-17T08:11:01;10.27;;;2.10;;
52268;SDS011;38224;50.950;4.100;2022-09-17T08:13:27;8.35;;;1.75;;
52268;SDS011;38224;50.950;4.100;2022-09-17T08:15:56;6.70;;;1.52;;
52268;SDS011;38224;50.950;4.100;2022-09-17T08:18:21;5.70;;;1.58;;
52268;SDS011;38224;50.950;4.100;2022-09-17T08:20:46;8.47;;;1.63;;
52268;SDS011;38224;50.950;4.100;2022-09-17T08:23:12;7.93;;;2.17;;
52268;SDS011;38224;50.950;4.100;2022-09-17T08:25:37;14.23;;;2.47;;
52268;SDS011;38224;50.950;4.100;2022-09-17T08:28:02;11.13;;;2.53;;
52268;SDS011;38224;50.950;4.100;2022-09-17T08:30:27;9.67;;;2.07;;
52268;SDS011;38224;50.950;4.100;2022-09-17T08:32:54;11.30;;;2.67;;
52268;SDS011;38224;50.950;4.100;2022-09-17T08:35:19;8.23;;;1.85;;
52268;SDS011;38224;50.950;4.100;2022-09-17T08:37:45;8.88;;;2.17;;
52268;SDS011;38224;50.950;4.100;2022-09-17T08:40:18;17.25;;;2.20;;
52268;SDS011;38224;50.950;4.100;2022-09-17T08:42:50;16.38;;;2.20;;
52268;SDS011;38224;50.950;4.100;2022-09-17T08:45:15;8.82;;;1.52;;
52268;SDS011;38224;50.950;4.100;2022-09-17T08:47:43;9.45;;;1.83;;
52268;SDS011;38224;50.950;4.100;2022-09-17T08:50:14;10.50;;;1.60;;
52268;SDS011;38224;50.950;4.100;2022-09-17T08:52:45;10.50;;;1.60;;
52268;SDS011;38224;50.950;4.100;2022-09-17T09:00:08;11.40;;;1.83;;
52268;SDS011;38224;50.950;4.100;2022-09-17T09:05:12;8.68;;;1.42;;
52268;SDS011;38224;50.950;4.100;2022-09-17T09:07:41;11.15;;;1.95;;
52268;SDS011;38224;50.950;4.100;2022-09-17T09:13:03;8.00;;;1.10;;
52268;SDS011;38224;50.950;4.100;2022-09-17T09:15:46;5.25;;;1.45;;
52268;SDS011;38224;50.950;4.100;2022-09-17T09:18:22;5.03;;;1.48;;
52268;SDS011;38224;50.950;4.100;2022-09-17T09:20:52;5.68;;;1.60;;
52268;SDS011;38224;50.950;4.100;2022-09-17T09:23:32;4.80;;;1.02;;
52268;SDS011;38224;50.950;4.100;2022-09-17T09:26:10;6.85;;;1.67;;
52268;SDS011;38224;50.950;4.100;2022-09-17T09:28:59;5.45;;;1.48;;
52268;SDS011;38224;50.950;4.100;2022-09-17T09:31:30;5.55;;;1.50;;
52268;SDS011;38224;50.950;4.100;2022-09-17T09:33:59;6.60;;;1.42;;
52268;SDS011;38224;50.950;4.100;2022-09-17T09:36:27;7.88;;;1.98;;
52268;SDS011;38224;50.950;4.100;2022-09-17T09:41:24;5.47;;;1.40;;
52268;SDS011;38224;50.950;4.100;2022-09-17T09:58:50;6.90;;;1.43;;
52268;SDS011;38224;50.950;4.100;2022-09-17T10:01:17;6.70;;;1.70;;
52268;SDS011;38224;50.950;4.100;2022-09-17T10:03:44;5.70;;;1.63;;
52268;SDS011;38224;50.950;4.100;2022-09-17T10:06:10;9.68;;;1.58;;
52268;SDS011;38224;50.950;4.100;2022-09-17T10:08:37;6.10;;;1.40;;
52268;SDS011;38224;50.950;4.100;2022-09-17T10:11:04;10.30;;;1.90;;
52268;SDS011;38224;50.950;4.100;2022-09-17T10:13:30;4.82;;;1.27;;
52268;SDS011;38224;50.950;4.100;2022-09-17T10:15:56;3.97;;;1.10;;
52268;SDS011;38224;50.950;4.100;2022-09-17T10:18:22;6.30;;;1.08;;
52268;SDS011;38224;50.950;4.100;2022-09-17T10:20:57;6.40;;;1.20;;
52268;SDS011;38224;50.950;4.100;2022-09-17T10:23:24;6.25;;;1.70;;
52268;SDS011;38224;50.950;4.100;2022-09-17T10:25:50;8.43;;;2.15;;
52268;SDS011;38224;50.950;4.100;2022-09-17T10:30:58;5.97;;;1.45;;
52268;SDS011;38224;50.950;4.100;2022-09-17T10:33:27;7.90;;;1.67;;
52268;SDS011;38224;50.950;4.100;2022-09-17T10:35:58;9.68;;;1.80;;
52268;SDS011;38224;50.950;4.100;2022-09-17T10:38:42;8.20;;;2.10;;
52268;SDS011;38224;50.950;4.100;2022-09-17T10:41:12;5.07;;;1.45;;
52268;SDS011;38224;50.950;4.100;2022-09-17T10:43:38;7.90;;;1.60;;
52268;SDS011;38224;50.950;4.100;2022-09-17T10:46:03;4.82;;;1.50;;
52268;SDS011;38224;50.950;4.100;2022-09-17T10:48:35;9.00;;;2.30;;
52268;SDS011;38224;50.950;4.100;2022-09-17T10:51:01;5.22;;;1.63;;
52268;SDS011;38224;50.950;4.100;2022-09-17T10:53:27;11.70;;;1.98;;
52268;SDS011;38224;50.950;4.100;2022-09-17T10:56:02;8.48;;;1.70;;
52268;SDS011;38224;50.950;4.100;2022-09-17T10:58:51;8.55;;;1.90;;
52268;SDS011;38224;50.950;4.100;2022-09-17T11:37:34;10.90;;;2.03;;
52268;SDS011;38224;50.950;4.100;2022-09-17T11:40:05;12.20;;;1.98;;
52268;SDS011;38224;50.950;4.100;2022-09-17T11:42:42;11.10;;;2.15;;
52268;SDS011;38224;50.950;4.100;2022-09-17T11:45:28;11.40;;;2.47;;
52268;SDS011;38224;50.950;4.100;2022-09-17T11:47:57;14.27;;;3.00;;
52268;SDS011;38224;50.950;4.100;2022-09-17T11:50:27;12.05;;;3.20;;
52268;SDS011;38224;50.950;4.100;2022-09-17T11:53:07;10.60;;;2.15;;
52268;SDS011;38224;50.950;4.100;2022-09-17T11:55:45;15.23;;;2.92;;
52268;SDS011;38224;50.950;4.100;2022-09-17T11:58:18;11.38;;;2.45;;
52268;SDS011;38224;50.950;4.100;2022-09-17T12:00:48;14.50;;;2.85;;
52268;SDS011;38224;50.950;4.100;2022-09-17T12:03:19;13.35;;;2.53;;
52268;SDS011;38224;50.950;4.100;2022-09-17T12:05:46;11.77;;;2.63;;
52268;SDS011;38224;50.950;4.100;2022-09-17T12:08:20;9.07;;;2.33;;
52268;SDS011;38224;50.950;4.100;2022-09-17T12:15:41;13.40;;;2.67;;
52268;SDS011;38224;50.950;4.100;2022-09-17T12:20:36;15.45;;;2.90;;
52268;SDS011;38224;50.950;4.100;2022-09-17T12:23:05;13.32;;;2.30;;
52268;SDS011;38224;50.950;4.100;2022-09-17T12:25:37;13.88;;;3.25;;
52268;SDS011;38224;50.950;4.100;2022-09-17T12:28:07;14.68;;;3.00;;
52268;SDS011;38224;50.950;4.100;2022-09-17T12:30:37;10.73;;;2.63;;
52268;SDS011;38224;50.950;4.100;2022-09-17T12:38:20;9.70;;;2.55;;
52268;SDS011;38224;50.950;4.100;2022-09-17T12:48:30;18.33;;;2.80;;
52268;SDS011;38224;50.950;4.100;2022-09-17T12:53:54;13.15;;;2.35;;
52268;SDS011;38224;50.950;4.100;2022-09-17T12:59:17;17.80;;;2.67;;
52268;SDS011;38224;50.950;4.100;2022-09-17T13:02:19;10.75;;;2.80;;
52268;SDS011;38224;50.950;4.100;2022-09-17T13:10:31;12.70;;;2.47;;
52268;SDS011;38224;50.950;4.100;2022-09-17T13:20:21;8.63;;;2.03;;
52268;SDS011;38224;50.950;4.100;2022-09-17T13:22:48;7.40;;;1.70;;
52268;SDS011;38224;50.950;4.100;2022-09-17T13:25:14;8.43;;;1.95;;
52268;SDS011;38224;50.950;4.100;2022-09-17T13:27:40;8.02;;;1.88;;
52268;SDS011;38224;50.950;4.100;2022-09-17T13:30:09;12.55;;;2.88;;
52268;SDS011;38224;50.950;4.100;2022-09-17T13:40:04;15.23;;;2.60;;
52268;SDS011;38224;50.950;4.100;2022-09-17T13:42:41;9.05;;;2.20;;
52268;SDS011;38224;50.950;4.100;2022-09-17T13:45:11;13.18;;;2.35;;
52268;SDS011;38224;50.950;4.100;2022-09-17T13:48:01;7.00;;;1.70;;
52268;SDS011;38224;50.950;4.100;2022-09-17T13:50:27;7.93;;;1.55;;
52268;SDS011;38224;50.950;4.100;2022-09-17T13:52:57;18.83;;;1.85;;
52268;SDS011;38224;50.950;4.100;2022-09-17T13:55:36;10.35;;;2.05;;
52268;SDS011;38224;50.950;4.100;2022-09-17T13:58:06;5.70;;;1.75;;
52268;SDS011;38224;50.950;4.100;2022-09-17T14:00:53;11.40;;;2.40;;
52268;SDS011;38224;50.950;4.100;2022-09-17T14:05:56;10.02;;;2.00;;
52268;SDS011;38224;50.950;4.100;2022-09-17T14:08:27;7.95;;;2.13;;
52268;SDS011;38224;50.950;4.100;2022-09-17T14:10:53;5.55;;;1.58;;
52268;SDS011;38224;50.950;4.100;2022-09-17T14:15:54;8.88;;;1.90;;
52268;SDS011;38224;50.950;4.100;2022-09-17T14:21:03;5.65;;;1.70;;
52268;SDS011;38224;50.950;4.100;2022-09-17T14:23:32;12.15;;;2.70;;
52268;SDS011;38224;50.950;4.100;2022-09-17T14:25:58;7.95;;;1.70;;
52268;SDS011;38224;50.950;4.100;2022-09-17T14:28:39;9.55;;;2.15;;
52268;SDS011;38224;50.950;4.100;2022-09-17T14:31:26;10.40;;;1.83;;
52268;SDS011;38224;50.950;4.100;2022-09-17T14:33:55;8.52;;;1.50;;
52268;SDS011;38224;50.950;4.100;2022-09-17T14:36:20;8.23;;;1.52;;
52268;SDS011;38224;50.950;4.100;2022-09-17T14:38:47;11.68;;;2.05;;
52268;SDS011;38224;50.950;4.100;2022-09-17T14:41:17;6.75;;;1.65;;
52268;SDS011;38224;50.950;4.100;2022-09-17T14:46:10;11.17;;;1.73;;
52268;SDS011;38224;50.950;4.100;2022-09-17T14:48:38;8.88;;;2.75;;
52268;SDS011;38224;50.950;4.100;2022-09-17T14:53:41;7.75;;;2.97;;
52268;SDS011;38224;50.950;4.100;2022-09-17T14:56:07;11.25;;;2.50;;
52268;SDS011;38224;50.950;4.100;2022-09-17T14:58:34;7.22;;;2.25;;
52268;SDS011;38224;50.950;4.100;2022-09-17T15:01:00;8.68;;;2.33;;
52268;SDS011;38224;50.950;4.100;2022-09-17T15:03:25;8.73;;;2.63;;
52268;SDS011;38224;50.950;4.100;2022-09-17T15:05:50;7.65;;;1.92;;
52268;SDS011;38224;50.950;4.100;2022-09-17T15:08:20;9.98;;;1.90;;
52268;SDS011;38224;50.950;4.100;2022-09-17T15:13:15;10.35;;;2.13;;
52268;SDS011;38224;50.950;4.100;2022-09-17T15:15:52;6.57;;;1.52;;
52268;SDS011;38224;50.950;4.100;2022-09-17T15:18:18;5.85;;;1.80;;
52268;SDS011;38224;50.950;4.100;2022-09-17T15:20:45;6.13;;;2.10;;
52268;SDS011;38224;50.950;4.100;2022-09-17T15:23:13;7.45;;;1.70;;
52268;SDS011;38224;50.950;4.100;2022-09-17T15:25:40;5.18;;;1.73;;
52268;SDS011;38224;50.950;4.100;2022-09-17T15:28:40;5.35;;;1.20;;
52268;SDS011;38224;50.950;4.100;2022-09-17T15:30:58;7.38;;;1.73;;
52268;SDS011;38224;50.950;4.100;2022-09-17T15:33:23;5.22;;;1.00;;
52268;SDS011;38224;50.950;4.100;2022-09-17T15:38:25;4.43;;;0.90;;
52268;SDS011;38224;50.950;4.100;2022-09-17T15:40:51;10.60;;;1.65;;
52268;SDS011;38224;50.950;4.100;2022-09-17T15:45:48;5.00;;;1.30;;
52268;SDS011;38224;50.950;4.100;2022-09-17T15:50:55;8.88;;;1.30;;
52268;SDS011;38224;50.950;4.100;2022-09-17T15:53:24;3.85;;;1.20;;
52268;SDS011;38224;50.950;4.100;2022-09-17T15:56:03;3.47;;;1.23;;
52268;SDS011;38224;50.950;4.100;2022-09-17T15:58:30;3.75;;;1.40;;
52268;SDS011;38224;50.950;4.100;2022-09-17T16:08:55;6.72;;;1.70;;
52268;SDS011;38224;50.950;4.100;2022-09-17T16:11:21;7.07;;;1.90;;
52268;SDS011;38224;50.950;4.100;2022-09-17T16:13:47;5.03;;;1.60;;
52268;SDS011;38224;50.950;4.100;2022-09-17T16:16:13;6.18;;;1.73;;
52268;SDS011;38224;50.950;4.100;2022-09-17T16:18:39;10.15;;;2.08;;
52268;SDS011;38224;50.950;4.100;2022-09-17T16:21:04;7.07;;;1.73;;
52268;SDS011;38224;50.950;4.100;2022-09-17T16:23:30;8.02;;;1.85;;
52268;SDS011;38224;50.950;4.100;2022-09-17T16:25:55;9.60;;;2.10;;
52268;SDS011;38224;50.950;4.100;2022-09-17T16:28:21;9.93;;;2.10;;
52268;SDS011;38224;50.950;4.100;2022-09-17T16:30:46;14.45;;;2.10;;
52268;SDS011;38224;50.950;4.100;2022-09-17T16:33:13;7.28;;;2.03;;
52268;SDS011;38224;50.950;4.100;2022-09-17T16:35:38;10.85;;;2.50;;
52268;SDS011;38224;50.950;4.100;2022-09-17T16:38:04;6.95;;;1.95;;
52268;SDS011;38224;50.950;4.100;2022-09-17T16:40:29;8.10;;;1.63;;
52268;SDS011;38224;50.950;4.100;2022-09-17T16:42:55;10.02;;;2.40;;
52268;SDS011;38224;50.950;4.100;2022-09-17T16:45:23;8.10;;;2.17;;
52268;SDS011;38224;50.950;4.100;2022-09-17T16:47:48;12.67;;;2.00;;
52268;SDS011;38224;50.950;4.100;2022-09-17T16:50:14;9.67;;;2.43;;
52268;SDS011;38224;50.950;4.100;2022-09-17T16:52:40;9.27;;;2.30;;
52268;SDS011;38224;50.950;4.100;2022-09-17T16:55:05;14.25;;;2.45;;
52268;SDS011;38224;50.950;4.100;2022-09-17T16:57:31;13.88;;;2.30;;
52268;SDS011;38224;50.950;4.100;2022-09-17T16:59:56;11.27;;;2.65;;
52268;SDS011;38224;50.950;4.100;2022-09-17T17:02:22;12.57;;;2.58;;
52268;SDS011;38224;50.950;4.100;2022-09-17T17:04:47;11.87;;;2.33;;
52268;SDS011;38224;50.950;4.100;2022-09-17T17:07:12;16.23;;;3.30;;
52268;SDS011;38224;50.950;4.100;2022-09-17T17:09:38;12.30;;;3.65;;
52268;SDS011;38224;50.950;4.100;2022-09-17T17:12:03;8.65;;;2.50;;
52268;SDS011;38224;50.950;4.100;2022-09-17T17:14:28;14.98;;;2.70;;
52268;SDS011;38224;50.950;4.100;2022-09-17T17:16:54;13.95;;;2.70;;
52268;SDS011;38224;50.950;4.100;2022-09-17T17:19:19;11.60;;;2.42;;
52268;SDS011;38224;50.950;4.100;2022-09-17T17:21:44;6.38;;;2.47;;
52268;SDS011;38224;50.950;4.100;2022-09-17T17:24:10;13.50;;;3.08;;
52268;SDS011;38224;50.950;4.100;2022-09-17T17:26:35;11.63;;;2.65;;
52268;SDS011;38224;50.950;4.100;2022-09-17T17:29:00;17.20;;;3.07;;
52268;SDS011;38224;50.950;4.100;2022-09-17T17:31:26;14.25;;;3.08;;
52268;SDS011;38224;50.950;4.100;2022-09-17T17:33:52;14.68;;;2.85;;
52268;SDS011;38224;50.950;4.100;2022-09-17T17:36:17;13.10;;;2.83;;
52268;SDS011;38224;50.950;4.100;2022-09-17T17:38:42;14.47;;;3.43;;
52268;SDS011;38224;50.950;4.100;2022-09-17T17:41:11;11.43;;;2.93;;
52268;SDS011;38224;50.950;4.100;2022-09-17T17:43:37;10.93;;;2.65;;